AirNav   Air Wisconsin Up To $57,000 Bonus
 
 1523 users online  

05XS Johnson Memorial Airport
Wilmot, Arkansas, USA

GOING TO WILMOT?


FAA INFORMATION EFFECTIVE 10 OCTOBER 2019

Location

FAA Identifier: 05XS
Lat/Long: 33-04-42.6000N 091-33-42.6000W
33-04.710000N 091-33.710000W
33.0785000,-91.5618333
(estimated)
Elevation: 105 ft. / 32 m (estimated)
Variation: 03E (1990)
From city: 1 mile N of WILMOT, AR
Time zone: UTC -5 (UTC -6 during Standard Time)
Zip code: 71676

Airport Operations

Airport use: Private use. Permission required prior to landing
Activation date: 06/1993
Control tower: no
ARTCC: MEMPHIS CENTER
FSS: JONESBORO FLIGHT SERVICE STATION
Attendance: UNATNDD
Segmented circle: no

Nearby radio navigation aids

VOR radial/distance  VOR name  Freq  Var
MONr161/30.0MONTICELLO VOR/DME111.6004E
GLHr223/39.4GREENVILLE VOR/DME110.2004E

 
NDB name  Hdg/Dist  Freq  Var  ID
BASTROP037/25.332903EBQP -... --.- .--.
METCALF235/35.835901WMTQ -- - --.-

Airport Services

Runway Information

Runway 2/20

Dimensions: 2600 x 100 ft. / 792 x 30 m
Surface: turf
RUNWAY 2  RUNWAY 20
Traffic pattern: leftleft
Obstructions: 50 ft. trees, 100 ft. from runway50 ft. trees, 100 ft. from runway

Airport Ownership and Management from official FAA records

Ownership: Privately-owned
Owner: NELDA B. JOHNSON TRUST
PO BOX 295
WILMOT, AR 71676
Phone 870-473-5548
WM. L. JOHNSON FAMILY TRUST.
Manager: JAMES W. JOHNSON
PO BOX 295
WILMOT, AR 71676
Phone 870-473-5548

Airport Operational Statistics

Aircraft based on the field: 2
Single engine airplanes: 2
    

Additional Remarks

FOR CD CTC MEMPHIS ARTCC AT 901-368-8453.

Instrument Procedures

There are no published instrument procedures at 05XS.

Some nearby airports with instrument procedures:

KCRT - Z M Jack Stell Field Airport (17 nm W)
M32 - Lake Village Municipal Airport (20 nm NE)
KBQP - Morehouse Memorial Airport (25 nm SW)
7M1 - Mc Gehee Municipal Airport (34 nm N)
KLLQ - Monticello Municipal Airport/Ellis Field (35 nm N)
 
Loc | Ops | Rwys | IFR | FBO | Links
Com | Nav | Svcs | Stats | Notes
Area around 05XS (Johnson Memorial Airport)
 
Road maps at: MapQuest Bing Google
 
Aerial photo
No photo
 
Sectional chart

 
Airport distance calculator
Flying to Johnson Memorial Airport? Find the distance to fly.

From to 05XS

Sunrise and sunset
Times for 17-Oct-2019
 Local
(UTC-5)
 Zulu
(UTC)
Morning civil twilight06:4811:48
Sunrise07:1312:13
Sunset18:3023:30
Evening civil twilight18:5523:55

Current date and time
Zulu (UTC)  17-Oct-2019 17:11:11
Local (UTC-5)  17-Oct-2019 12:11:11
 
METAR
KBQP 
25nm SW 
171655Z AUTO 00000KT 10SM CLR 17/07 A3011 RMK AO2 T01660070
KLLQ 
35nm N 
171653Z AUTO 05007KT 10SM CLR 18/08 A3010 RMK AO2 SLP191 T01780078
KGLH 
38nm NE 
171653Z 05005KT 10SM CLR 18/07 A3010 RMK AO2 SLP198 T01780067 $
KMLU 
41nm SW 
171653Z 07007KT 10SM CLR 17/08 A3010 RMK AO2 SLP193 T01720078
TAF
KLLQ 
35nm N 
171138Z 1712/1812 VRB04KT P6SM SCT250
KGLH 
38nm NE 
171120Z 1712/1812 01005KT P6SM BKN300
KMLU 
41nm SW 
171121Z 1712/1812 VRB03KT P6SM BKN250 FM171600 05005KT P6SM SCT250 FM180000 00000KT P6SM SCT250
NOTAMs
Click for the latest NOTAMs
NOTAMs are issued by the DoD/FAA and will open in a separate window not controlled by AirNav.

 

 
 

Would you like to see your business listed on this page?

 If your business provides an interesting product or service to pilots, flight crews, aircraft, or users of the Johnson Memorial Airport, you should consider listing it here.  To start the listing process, click on the button below
 
Add a business
 

Other Pages about Johnson Memorial Airport

Update a link
 
Copyright © AirNav, LLC. All rights reserved. Privacy Policy  Contact